Latest Weather Observations for PORTABLE QFRL (Mt Fox)

IDQ60801

Issued at 2:42 am EST Friday 21 September 2018 (issued every 10 minutes, with the page automatically refreshed every 10 minutes)

About weather observations | Map of weather stations | Latest weather observations for QLD | Other Formats
Station Details ID: 250076 Name: PORTABLE QFRL (MOUNT FOX) Lat: -18.83 Lon: 145.80 Height: 645.0 m
Data from the previous 72 hours. | See also: Recent months for locations in Queensland
Date/Time
EST
Temp
°C
App
Temp
°C
Dew
Point
°C
Rel
Hum
%
Delta-T
°C
Wind Press
QNH
hPa
Press
MSL
hPa
Rain since
9am
mm
Dir  Spd
km/h
Gust
km/h
Spd
kts
Gust
kts
21/02:20am 12.6 12.5 9.6 82 1.6 CALM 0 0 0 0 - - 0.0
21/02:10am 12.8 12.7 9.4 80 1.8 CALM 0 0 0 0 - - 0.0
21/02:00am 13.3 13.2 9.6 78 2.0 CALM 0 0 0 0 - - 0.0
21/01:50am 13.8 13.7 9.5 75 2.3 CALM 0 0 0 0 - - 0.0
21/01:40am 14.1 14.1 9.8 75 2.3 CALM 0 0 0 0 - - 0.0
21/01:30am 14.8 14.9 10.2 74 2.5 CALM 0 0 0 0 - - 0.0
21/01:20am 15.6 15.4 9.1 65 3.5 CALM 0 0 0 0 - - 0.0
21/01:10am 16.5 16.4 9.5 63 3.8 CALM 0 2 0 1 - - 0.0
21/01:00am 16.9 15.7 8.1 56 4.6 S 4 6 2 3 - - 0.0
21/12:50am 16.8 16.1 8.5 58 4.4 WSW 2 6 1 3 - - 0.0
21/12:40am 17.3 16.6 8.7 57 4.6 NE 2 6 1 3 - - 0.0
21/12:30am 17.3 16.1 8.2 55 4.8 NE 4 4 2 2 - - 0.0
21/12:20am 17.5 16.7 8.0 53 5.0 NE 2 4 1 2 - - 0.0
21/12:10am 17.8 16.9 7.8 52 5.2 NE 2 6 1 3 - - 0.0
21/12:00am 17.9 16.5 7.2 49 5.6 ENE 4 6 2 3 - - 0.0
 
Date/Time
EST
Temp
°C
App
Temp
°C
Dew
Point
°C
Rel
Hum
%
Delta-T
°C
Wind Press
QNH
hPa
Press
MSL
hPa
Rain since
9am
mm
Dir  Spd
km/h
Gust
km/h
Spd
kts
Gust
kts
20/11:50pm 17.9 16.5 7.4 50 5.5 E 4 6 2 3 - - 0.0
20/11:40pm 17.8 16.7 7.0 49 5.6 ESE 2 4 1 2 - - 0.0
20/11:30pm 17.8 16.3 6.8 48 5.7 ESE 4 6 2 3 - - 0.0
20/11:20pm 17.7 16.6 7.1 50 5.5 ESE 2 2 1 1 - - 0.0
20/11:10pm 17.9 16.8 6.7 48 5.8 E 2 4 1 2 - - 0.0
20/11:00pm 18.1 16.7 7.3 49 5.6 ENE 4 6 2 3 - - 0.0
20/10:50pm 18.0 16.8 6.3 46 6.0 ESE 2 6 1 3 - - 0.0
20/10:40pm 17.9 16.8 7.1 49 5.6 E 2 4 1 2 - - 0.0
20/10:30pm 18.1 17.6 7.8 51 5.4 CALM 0 2 0 1 - - 0.0
20/10:20pm 18.4 17.5 7.8 50 5.6 SE 2 4 1 2 - - 0.0
20/10:10pm 18.1 17.3 8.2 52 5.2 ESE 2 4 1 2 - - 0.0
20/10:00pm 18.0 17.4 9.1 56 4.8 E 2 4 1 2 - - 0.0
20/09:50pm 17.8 17.6 10.3 61 4.1 ENE 2 4 1 2 - - 0.0
20/09:40pm 17.7 17.8 11.6 67 3.4 E 2 4 1 2 - - 0.0
20/09:30pm 17.7 18.0 12.3 70 3.1 E 2 4 1 2 - - 0.0
20/09:20pm 17.7 18.1 12.5 71 3.0 E 2 4 1 2 - - 0.0
20/09:10pm 18.0 18.6 13.1 73 2.8 E 2 4 1 2 - - 0.0
20/09:00pm 18.0 18.3 13.5 75 2.6 E 4 6 2 3 - - 0.0
20/08:50pm 18.0 19.2 13.8 76 2.5 CALM 0 2 0 1 - - 0.0
20/08:40pm 18.0 19.3 14.1 78 2.3 CALM 0 0 0 0 - - 0.0
20/08:30pm 18.1 19.1 14.3 78 2.3 NE 2 4 1 2 - - 0.0
20/08:20pm 18.3 19.4 14.6 79 2.2 E 2 4 1 2 - - 0.0
20/08:10pm 18.4 19.6 14.8 79 2.2 ESE 2 6 1 3 - - 0.0
20/08:00pm 18.4 19.6 15.0 80 2.0 NNE 2 4 1 2 - - 0.0
20/07:50pm 18.6 19.8 14.9 79 2.2 NE 2 4 1 2 - - 0.0
20/07:40pm 18.8 20.0 15.0 78 2.3 NE 2 4 1 2 - - 0.0
20/07:30pm 19.0 20.2 14.8 76 2.5 ENE 2 4 1 2 - - 0.0
20/07:20pm 19.3 20.4 14.7 74 2.8 ENE 2 7 1 4 - - 0.0
20/07:10pm 19.6 20.3 14.5 72 3.1 ENE 4 7 2 4 - - 0.0
20/07:00pm 19.8 20.4 14.2 70 3.3 NE 4 6 2 3 - - 0.0
20/06:50pm 20.1 20.5 13.7 66 3.8 NE 4 7 2 4 - - 0.0
20/06:40pm 20.5 20.7 12.9 61 4.4 NE 4 6 2 3 - - 0.0
20/06:30pm 20.8 21.2 12.5 59 4.8 NNE 2 6 1 3 - - 0.0
20/06:20pm 21.2 21.6 12.4 57 5.1 ENE 2 6 1 3 - - 0.0
20/06:10pm 21.7 21.7 12.3 55 5.5 NE 4 9 2 5 - - 0.0
20/06:00pm 22.1 21.7 12.3 53 5.7 NE 6 7 3 4 - - 0.0
20/05:50pm 22.5 21.5 12.2 52 6.0 NE 9 13 5 7 - - 0.0
20/05:40pm 23.0 22.3 12.1 50 6.4 NE 7 9 4 5 - - 0.0
20/05:30pm 23.5 22.7 11.8 47 6.8 NE 7 9 4 5 - - 0.0
20/05:20pm 24.0 23.4 11.6 45 7.2 NNE 6 11 3 6 - - 0.0
20/05:10pm 24.3 23.3 11.0 43 7.7 NNE 7 11 4 6 - - 0.0
20/05:00pm 24.8 23.7 10.6 40 8.1 NNE 7 13 4 7 - - 0.0
20/04:50pm 25.2 24.2 10.2 38 8.6 NNE 6 15 3 8 - - 0.0
20/04:40pm 25.3 23.5 9.3 36 9.0 NNE 9 17 5 9 - - 0.0
20/04:30pm 25.5 23.1 8.6 34 9.4 NE 11 15 6 8 - - 0.0
20/04:20pm 26.1 23.9 7.9 31 10.0 NE 9 15 5 8 - - 0.0
20/04:10pm 26.6 24.5 8.2 31 10.2 NNE 9 15 5 8 - - 0.0
20/04:00pm 26.9 24.4 8.0 30 10.5 NNE 11 15 6 8 - - 0.0
20/03:50pm 27.2 24.6 7.9 29 10.7 NE 11 13 6 7 - - 0.0
20/03:40pm 27.6 25.4 7.9 28 10.9 NE 9 15 5 8 - - 0.0
20/03:30pm 27.4 24.9 8.1 29 10.7 NNE 11 17 6 9 - - 0.0
20/03:20pm 27.5 24.2 8.1 29 10.8 NNE 15 19 8 10 - - 0.0
20/03:10pm 27.8 25.3 8.4 29 10.9 NE 11 13 6 7 - - 0.0
20/03:00pm 27.8 25.0 8.4 29 10.9 NE 13 17 7 9 - - 0.0
20/02:50pm 28.0 25.4 9.4 31 10.6 NE 13 15 7 8 - - 0.0
20/02:40pm 28.3 26.2 9.9 31 10.6 NNE 11 19 6 10 - - 0.0
20/02:30pm 28.3 26.4 10.5 33 10.4 ENE 11 15 6 8 - - 0.0
20/02:20pm 28.3 27.1 11.7 35 9.8 NE 9 11 5 6 - - 0.0
20/02:10pm 28.1 26.1 11.6 36 9.8 NNE 13 15 7 8 - - 0.0
20/02:00pm 28.4 27.3 11.9 36 9.8 NE 9 13 5 7 - - 0.0
20/01:50pm 28.6 27.5 12.0 35 9.9 NE 9 15 5 8 - - 0.0
20/01:40pm 28.5 27.5 12.2 36 9.7 NE 9 13 5 7 - - 0.0
20/01:30pm 27.9 26.7 12.7 39 9.1 NNE 11 15 6 8 - - 0.0
20/01:20pm 27.6 26.5 13.2 41 8.7 NNE 11 15 6 8 - - 0.0
20/01:10pm 28.0 27.4 13.4 40 8.9 NE 9 13 5 7 - - 0.0
20/01:00pm 28.1 27.6 12.7 38 9.3 E 7 11 4 6 - - 0.0
20/12:50pm 27.9 27.4 12.6 38 9.2 NE 7 11 4 6 - - 0.0
20/12:40pm 27.8 27.1 13.2 40 8.8 NNE 9 11 5 6 - - 0.0
20/12:30pm 27.6 27.3 12.8 40 8.9 NE 6 11 3 6 - - 0.0
20/12:20pm 27.1 26.9 13.5 43 8.3 NE 7 13 4 7 - - 0.0
20/12:10pm 27.0 26.8 13.6 43 8.1 E 7 13 4 7 - - 0.0
20/12:00pm 26.9 26.2 13.3 43 8.2 ENE 9 13 5 7 - - 0.0
20/11:50am 27.2 26.8 13.0 41 8.6 ENE 7 9 4 5 - - 0.0
20/11:40am 26.9 26.9 14.2 45 7.8 NE 7 11 4 6 - - 0.0
20/11:30am 26.7 26.9 14.2 46 7.7 ENE 6 11 3 6 - - 0.0
20/11:20am 26.2 26.0 13.7 46 7.6 NE 7 11 4 6 - - 0.0
20/11:10am 26.0 25.7 14.5 49 7.1 NNE 9 15 5 8 - - 0.0
20/11:00am 25.7 25.8 14.4 49 6.9 NE 7 13 4 7 - - 0.0
20/10:50am 25.3 25.6 14.4 50 6.7 NNE 6 9 3 5 - - 0.0
20/10:40am 25.2 25.5 14.4 51 6.6 NE 6 9 3 5 - - 0.0
20/10:30am 24.8 24.8 14.1 51 6.5 NNE 7 11 4 6 - - 0.0
20/10:20am 24.5 24.3 13.7 51 6.5 NE 7 11 4 6 - - 0.0
20/10:10am 24.4 23.9 13.8 51 6.4 ENE 9 11 5 6 - - 0.0
20/10:00am 24.2 23.8 13.0 49 6.7 E 7 13 4 7 - - 0.0
20/09:50am 23.8 23.3 12.7 49 6.6 NE 7 11 4 6 - - 0.0
20/09:40am 23.0 23.1 14.5 58 5.2 NNE 7 7 4 4 - - 0.0
20/09:30am 22.2 22.2 14.3 61 4.8 NNE 7 11 4 6 - - 0.0
20/09:20am 21.8 21.7 15.0 65 4.1 NNE 9 11 5 6 - - 0.0
20/09:10am 21.9 22.2 14.9 64 4.3 NE 7 9 4 5 - - 0.0
20/09:00am 21.7 22.0 14.9 65 4.1 NE 7 11 4 6 - - 0.0
20/08:50am 21.3 21.6 15.0 67 3.8 NE 7 11 4 6 - - 0.0
20/08:40am 20.9 20.7 14.8 68 3.7 NE 9 13 5 7 - - 0.0
20/08:30am 20.6 20.5 14.9 70 3.4 NNE 9 11 5 6 - - 0.0
20/08:20am 20.3 20.6 15.0 71 3.2 NE 7 11 4 6 - - 0.0
20/08:10am 20.2 20.6 15.2 73 3.0 NE 7 11 4 6 - - 0.0
20/08:00am 20.1 20.5 15.2 73 3.0 NE 7 11 4 6 - - 0.0
20/07:50am 19.7 20.9 16.0 79 2.3 NE 4 7 2 4 - - 0.0
20/07:40am 18.9 19.6 15.6 81 2.0 NE 6 9 3 5 - - 0.0
20/07:30am 18.1 18.8 15.7 86 1.5 NE 6 9 3 5 - - 0.0
20/07:20am 17.3 18.0 15.6 90 1.0 NE 6 6 3 3 - - 0.0
20/07:10am 16.5 17.7 15.8 96 0.4 NE 4 6 2 3 - - 0.0
20/07:00am 16.0 17.1 15.7 98 0.2 NE 4 6 2 3 - - 0.0
20/06:50am 15.7 16.4 15.5 99 0.1 NE 6 7 3 4 - - 0.0
20/06:40am 15.2 16.4 15.0 99 0.1 NE 2 7 1 4 - - 0.0
20/06:30am 14.4 15.4 14.2 99 0.1 ENE 2 4 1 2 - - 0.0
20/06:20am 14.3 15.2 14.0 98 0.2 NE 2 6 1 3 - - 0.0
20/06:10am 13.4 14.3 12.9 97 0.3 CALM 0 0 0 0 - - 0.0
20/06:00am 13.7 14.6 13.0 96 0.4 CALM 0 2 0 1 - - 0.0
20/05:50am 14.0 15.1 13.4 96 0.3 CALM 0 2 0 1 - - 0.0
20/05:40am 14.2 15.4 13.7 97 0.3 CALM 0 2 0 1 - - 0.0
20/05:30am 14.5 15.7 13.8 96 0.4 CALM 0 2 0 1 - - 0.0
20/05:20am 14.8 16.1 14.1 96 0.4 CALM 0 0 0 0 - - 0.0
20/05:10am 15.0 16.4 14.4 96 0.4 CALM 0 2 0 1 - - 0.0
20/05:00am 15.2 16.3 14.5 96 0.4 ENE 2 4 1 2 - - 0.0
20/04:50am 15.3 16.4 14.7 96 0.4 ENE 2 6 1 3 - - 0.0
20/04:40am 15.0 15.7 14.5 97 0.3 E 4 6 2 3 - - 0.0
20/04:30am 14.9 16.0 14.5 97 0.2 E 2 4 1 2 - - 0.0
20/04:20am 14.4 14.9 14.0 97 0.2 E 4 9 2 5 - - 0.0
20/04:10am 13.8 14.7 12.9 94 0.5 CALM 0 2 0 1 - - 0.0
20/04:00am 13.5 14.3 12.6 94 0.5 CALM 0 2 0 1 - - 0.0
20/03:50am 13.4 14.1 12.1 92 0.7 CALM 0 2 0 1 - - 0.0
20/03:40am 13.4 13.6 11.8 90 0.9 WSW 2 4 1 2 - - 0.0
20/03:30am 14.0 14.6 12.0 88 1.1 CALM 0 2 0 1 - - 0.0
20/03:20am 14.7 15.2 11.6 82 1.7 CALM 0 2 0 1 - - 0.0
20/03:10am 14.9 15.1 11.8 82 1.7 SSE 2 4 1 2 - - 0.0
20/03:00am 14.7 14.7 11.1 79 2.0 SSE 2 4 1 2 - - 0.0
20/02:50am 15.1 15.1 11.3 78 2.1 ESE 2 4 1 2 - - 0.0
20/02:40am 15.2 15.3 11.5 78 2.1 ESE 2 4 1 2 - - 0.0
20/02:30am 15.6 15.8 11.8 78 2.1 ESE 2 2 1 1 - - 0.0
20/02:20am 15.8 16.0 12.0 78 2.1 ESE 2 4 1 2 - - 0.0
20/02:10am 15.9 16.2 12.3 79 2.0 ESE 2 4 1 2 - - 0.0
20/02:00am 15.9 16.7 12.6 81 1.9 CALM 0 4 0 2 - - 0.0
20/01:50am 16.0 16.5 12.7 81 1.9 E 2 6 1 3 - - 0.0
20/01:40am 16.0 16.5 12.9 82 1.8 NE 2 6 1 3 - - 0.0
20/01:30am 16.0 16.4 13.8 87 1.3 NE 4 7 2 4 - - 0.0
20/01:20am 16.0 16.7 14.4 90 0.9 NE 4 6 2 3 - - 0.0
20/01:10am 16.0 16.7 14.5 91 0.9 NE 4 9 2 5 - - 0.0
20/01:00am 16.0 17.0 14.4 90 0.9 NE 2 9 1 5 - - 0.0
20/12:50am 16.1 16.8 14.4 90 1.0 NE 4 7 2 4 - - 0.0
20/12:40am 16.1 16.3 14.3 89 1.1 NE 6 7 3 4 - - 0.0
20/12:30am 16.2 16.8 14.3 88 1.1 NE 4 9 2 5 - - 0.0
20/12:20am 16.2 16.4 14.3 88 1.1 NE 6 7 3 4 - - 0.0
20/12:10am 16.3 16.8 14.1 87 1.3 ENE 4 9 2 5 - - 0.0
20/12:00am 16.3 16.8 13.9 86 1.4 ENE 4 9 2 5 - - 0.0
 
Date/Time
EST
Temp
°C
App
Temp
°C
Dew
Point
°C
Rel
Hum
%
Delta-T
°C
Wind Press
QNH
hPa
Press
MSL
hPa
Rain since
9am
mm
Dir  Spd
km/h
Gust
km/h
Spd
kts
Gust
kts
19/11:50pm 16.2 16.1 13.4 83 1.6 ENE 6 9 3 5 - - 0.0
19/11:40pm 16.2 16.2 13.5 84 1.6 NE 6 7 3 4 - - 0.0
19/11:30pm 16.4 16.2 13.1 81 1.9 NE 6 7 3 4 - - 0.0
19/11:20pm 16.5 16.3 13.0 80 2.0 NE 6 9 3 5 - - 0.0
19/11:10pm 16.5 16.7 13.1 80 2.0 NE 4 7 2 4 - - 0.0
19/11:00pm 16.5 16.2 12.8 79 2.1 NNE 6 9 3 5 - - 0.0
19/10:50pm 16.4 16.7 13.3 82 1.8 NNE 4 6 2 3 - - 0.0
19/10:40pm 16.5 16.8 13.4 82 1.8 ENE 4 7 2 4 - - 0.0
19/10:30pm 16.5 16.8 13.5 82 1.7 ENE 4 9 2 5 - - 0.0
19/10:20pm 16.5 16.9 13.6 83 1.7 NE 4 6 2 3 - - 0.0
19/10:10pm 16.6 17.0 13.7 83 1.7 NNE 4 9 2 5 - - 0.0
19/10:00pm 16.5 16.9 13.6 83 1.7 NNE 4 7 2 4 - - 0.0
19/09:50pm 16.4 17.2 13.6 83 1.6 NNE 2 9 1 5 - - 0.0
19/09:40pm 16.4 16.9 13.9 85 1.5 ENE 4 7 2 4 - - 0.0
19/09:30pm 16.4 17.0 14.2 87 1.3 ENE 4 9 2 5 - - 0.0
19/09:20pm 16.5 17.2 14.4 87 1.2 NE 4 7 2 4 - - 0.0
19/09:10pm 16.5 17.2 14.5 88 1.2 NE 4 6 2 3 - - 0.0
19/09:00pm 16.5 17.6 14.7 89 1.1 NE 2 6 1 3 - - 0.0
19/08:50pm 16.6 17.4 14.7 88 1.1 ENE 4 7 2 4 - - 0.0
19/08:40pm 16.6 17.8 14.8 89 1.1 ENE 2 6 1 3 - - 0.0
19/08:30pm 16.8 17.6 14.9 88 1.1 ENE 4 6 2 3 - - 0.0
19/08:20pm 16.9 17.8 15.0 88 1.1 ENE 4 6 2 3 - - 0.0
19/08:10pm 17.0 17.9 15.0 88 1.2 ENE 4 7 2 4 - - 0.0
19/08:00pm 17.1 18.0 15.1 88 1.2 NE 4 9 2 5 - - 0.0
19/07:50pm 17.3 18.6 15.1 87 1.3 NNE 2 7 1 4 - - 0.0
19/07:40pm 17.5 18.5 15.3 87 1.3 NNE 4 7 2 4 - - 0.0
19/07:30pm 17.6 18.6 15.4 87 1.3 NE 4 6 2 3 - - 0.0
19/07:20pm 17.7 18.4 15.5 87 1.3 NE 6 7 3 4 - - 0.0
19/07:10pm 17.8 18.9 15.6 87 1.3 ENE 4 7 2 4 - - 0.0
19/07:00pm 18.0 18.7 15.6 86 1.5 NE 6 9 3 5 - - 0.0
19/06:50pm 18.2 19.3 15.6 85 1.6 NE 4 7 2 4 - - 0.0
19/06:40pm 18.4 19.1 15.6 84 1.7 NE 6 7 3 4 - - 0.0
19/06:30pm 18.7 19.2 15.6 82 1.9 ENE 7 13 4 7 - - 0.0
19/06:20pm 19.0 19.5 15.6 80 2.1 NE 7 11 4 6 - - 0.0
19/06:10pm 19.4 19.9 15.5 78 2.4 NE 7 15 4 8 - - 0.0
19/06:00pm 19.7 19.8 15.5 77 2.6 NE 9 13 5 7 - - 0.0
19/05:50pm 20.0 19.7 15.4 75 2.8 NE 11 15 6 8 - - 0.0
19/05:40pm 20.4 20.5 15.5 73 3.0 NE 9 13 5 7 - - 0.0
19/05:30pm 20.7 20.4 15.5 72 3.2 NE 11 15 6 8 - - 0.0
19/05:20pm 20.9 20.2 15.4 71 3.4 NE 13 19 7 10 - - 0.0
19/05:10pm 21.1 20.8 15.4 70 3.5 NE 11 13 6 7 - - 0.0
19/05:00pm 21.3 21.0 15.4 69 3.6 NE 11 17 6 9 - - 0.0
19/04:50pm 21.6 21.3 15.4 68 3.8 NE 11 15 6 8 - - 0.0
19/04:40pm 21.9 21.5 15.3 66 4.0 NE 11 17 6 9 - - 0.0
19/04:30pm 22.0 21.6 15.3 65 4.1 NE 11 15 6 8 - - 0.0
19/04:20pm 22.3 21.5 15.2 64 4.3 NE 13 17 7 9 - - 0.0
19/04:10pm 22.9 22.4 15.0 61 4.8 NE 11 17 6 9 - - 0.0
19/04:00pm 23.5 23.3 14.7 57 5.4 ENE 9 15 5 8 - - 0.0
19/03:50pm 23.4 22.9 14.9 59 5.2 NE 11 19 6 10 - - 0.0
19/03:40pm 23.6 23.1 14.9 58 5.3 ENE 11 15 6 8 - - 0.0
19/03:30pm 23.9 23.3 14.7 56 5.6 ENE 11 13 6 7 - - 0.0
19/03:20pm 23.7 22.6 14.4 56 5.7 NE 13 19 7 10 - - 0.0
19/03:10pm 23.8 22.9 14.8 57 5.5 NE 13 19 7 10 - - 0.0
19/03:00pm 24.1 23.3 15.1 57 5.5 NE 13 17 7 9 - - 0.0
19/02:50pm 24.2 23.2 14.7 55 5.8 ENE 13 20 7 11 - - 0.0
19/02:40pm 24.7 24.0 15.4 56 5.8 ENE 13 19 7 10 - - 0.0
19/02:30pm 24.4 23.6 15.0 55 5.8 ENE 13 17 7 9 - - 0.0
19/02:20pm 24.7 23.8 14.9 54 6.0 ENE 13 20 7 11 - - 0.0
19/02:10pm 25.0 24.1 14.9 53 6.2 ENE 13 19 7 10 - - 0.0
19/02:00pm 25.0 24.2 14.0 50 6.7 ENE 11 17 6 9 - - 0.0
19/01:50pm 24.9 24.4 14.9 53 6.2 ENE 11 15 6 8 - - 0.0
19/01:40pm 24.7 23.7 14.7 53 6.1 ENE 13 19 7 10 - - 0.0
19/01:30pm 25.2 24.7 15.0 53 6.3 ENE 11 19 6 10 - - 0.0
19/01:20pm 24.9 23.7 14.1 51 6.6 ENE 13 20 7 11 - - 0.0
19/01:10pm 25.0 24.3 15.3 55 6.0 ENE 13 17 7 9 - - 0.0
19/01:00pm 25.2 24.6 14.5 51 6.5 ENE 11 19 6 10 - - 0.0
19/12:50pm 24.8 24.1 14.3 52 6.4 ENE 11 17 6 9 - - 0.0
19/12:40pm 24.6 24.2 15.3 56 5.8 E 11 15 6 8 - - 0.0
19/12:30pm 24.6 23.7 14.8 54 6.0 ENE 13 19 7 10 - - 0.0
19/12:20pm 24.6 24.0 15.7 57 5.5 ENE 13 22 7 12 - - 0.0
19/12:10pm 24.7 24.3 15.3 56 5.8 NE 11 17 6 9 - - 0.0
19/12:00pm 24.4 24.2 15.7 58 5.4 NE 11 17 6 9 - - 0.0
19/11:50am 24.6 23.9 15.5 57 5.6 NE 13 15 7 8 - - 0.0
19/11:40am 24.5 24.1 15.3 56 5.7 ENE 11 22 6 12 - - 0.0
19/11:30am 24.1 23.7 15.2 57 5.5 E 11 19 6 10 - - 0.0
19/11:20am 24.1 24.3 15.7 59 5.2 ENE 9 17 5 9 - - 0.0
19/11:10am 23.2 23.0 15.8 63 4.6 NE 11 13 6 7 - - 0.0
19/11:00am 23.2 22.6 15.6 62 4.7 NE 13 19 7 10 - - 0.0
19/10:50am 22.6 23.1 16.5 68 3.8 NE 9 13 5 7 - - 0.0
19/10:40am 22.7 22.8 16.6 68 3.8 ENE 11 17 6 9 - - 0.0
19/10:30am 22.9 23.3 16.2 66 4.2 ENE 9 17 5 9 - - 0.0
19/10:20am 21.9 22.3 16.4 71 3.4 ENE 9 13 5 7 - - 0.0
19/10:10am 20.7 21.2 16.6 77 2.6 ENE 9 17 5 9 - - 0.0
19/10:00am 20.8 21.1 17.0 79 2.4 NE 11 15 6 8 - - 0.0
19/09:50am 21.0 22.1 17.0 78 2.5 NE 7 11 4 6 - - 0.0
19/09:40am 21.0 21.3 16.9 77 2.6 NE 11 13 6 7 - - 0.0
19/09:30am 21.5 22.1 16.8 74 2.9 NE 9 17 5 9 - - 0.0
19/09:20am 21.0 21.5 16.6 76 2.7 NE 9 13 5 7 - - 0.0
19/09:10am 20.0 20.6 16.9 82 1.9 NE 9 15 5 8 - - 0.0
19/09:00am 20.5 20.6 16.6 78 2.4 NNE 11 17 6 9 - - 0.0
19/08:50am 20.6 21.2 16.7 78 2.4 NE 9 15 5 8 - - 0.0
19/08:40am 20.1 19.9 16.7 81 2.1 NNE 13 15 7 8 - - 0.0
19/08:30am 20.0 20.1 16.5 80 2.2 NE 11 15 6 8 - - 0.0
19/08:20am 20.1 20.1 16.2 78 2.4 NE 11 17 6 9 - - 0.0
19/08:10am 19.6 19.6 16.2 81 2.1 NE 11 17 6 9 - - 0.0
19/08:00am 19.6 19.7 16.6 83 1.9 NE 11 17 6 9 - - 0.0
19/07:50am 19.5 19.6 16.5 83 1.9 NE 11 17 6 9 - - 0.0
19/07:40am 19.0 19.8 16.3 84 1.7 ENE 7 11 4 6 - - 0.0
19/07:30am 18.4 18.5 16.4 88 1.2 NE 11 17 6 9 - - 0.0
19/07:20am 18.4 19.2 16.4 88 1.2 NE 7 11 4 6 - - 0.0
19/07:10am 18.0 18.8 16.3 90 1.0 ENE 7 13 4 7 - - 0.0
19/07:00am 17.8 18.2 16.4 91 0.9 NE 9 15 5 8 - - 0.0
19/06:50am 17.7 18.2 16.5 93 0.7 NE 9 15 5 8 - - 0.0
19/06:40am 17.7 18.2 16.6 93 0.7 NE 9 17 5 9 - - 0.0
19/06:30am 17.6 18.2 16.7 94 0.6 NE 9 13 5 7 - - 0.0
19/06:20am 17.6 18.5 16.5 93 0.7 NE 7 11 4 6 - - 0.0
19/06:10am 17.6 18.1 16.5 93 0.7 NE 9 11 5 6 - - 0.0
19/06:00am 17.5 18.3 16.4 93 0.7 NE 7 11 4 6 - - 0.0
19/05:50am 17.5 17.9 16.4 93 0.7 NE 9 15 5 8 - - 0.0
19/05:40am 17.4 17.5 16.5 94 0.6 NE 11 17 6 9 - - 0.0
19/05:30am 17.5 18.3 16.4 93 0.7 NE 7 13 4 7 - - 0.0
19/05:20am 17.5 17.9 16.2 92 0.8 NE 9 13 5 7 - - 0.0
19/05:10am 17.5 17.9 16.4 93 0.7 NE 9 13 5 7 - - 0.0
19/05:00am 17.5 17.6 16.4 93 0.7 NE 11 20 6 11 - - 0.0
19/04:50am 17.5 17.6 16.4 93 0.7 NE 11 15 6 8 - - 0.0
19/04:40am 17.5 17.5 16.3 93 0.7 NE 11 15 6 8 - - 0.0
19/04:30am 17.5 17.5 16.3 93 0.7 NE 11 17 6 9 - - 0.0
19/04:20am 17.5 17.1 16.2 92 0.8 NE 13 17 7 9 - - 0.0
19/04:10am 17.6 17.6 16.3 92 0.8 NE 11 17 6 9 - - 0.0
19/04:00am 17.6 17.6 16.3 92 0.8 NNE 11 17 6 9 - - 0.0
19/03:50am 17.5 17.5 16.3 93 0.7 NE 11 19 6 10 - - 0.0
19/03:40am 17.5 17.1 16.3 93 0.7 NE 13 15 7 8 - - 0.0
19/03:30am 17.5 16.8 16.3 93 0.7 NE 15 19 8 10 - - 0.0
19/03:20am 17.5 17.6 16.6 94 0.6 NE 11 17 6 9 - - 0.0
19/03:10am 17.4 17.5 16.5 94 0.6 NE 11 15 6 8 - - 0.0
19/03:00am 17.3 17.4 16.4 94 0.6 NNE 11 13 6 7 - - 0.0
19/02:50am 17.3 17.3 16.2 93 0.7 NE 11 13 6 7 - - 0.0
19/02:40am 17.3 17.2 16.0 92 0.8 NE 11 15 6 8 - - 0.0
19/02:30am 17.3 17.2 15.9 91 0.8 NE 11 17 6 9 - - 0.0
19/02:20am 17.2 16.7 16.0 93 0.7 NE 13 17 7 9 - - 0.0
19/02:10am 17.1 17.4 16.0 93 0.7 NE 9 13 5 7 - - 0.0
19/02:00am 17.1 17.0 15.9 93 0.7 NE 11 15 6 8 - - 0.0
19/01:50am 17.0 16.8 15.6 91 0.8 NE 11 19 6 10 - - 0.0
19/01:40am 17.1 16.6 16.0 93 0.7 NE 13 15 7 8 - - 0.0
19/01:30am 17.1 16.6 15.9 93 0.7 NE 13 19 7 10 - - 0.0
19/01:20am 17.1 16.6 16.0 93 0.7 NE 13 20 7 11 - - 0.0
19/01:10am 17.1 17.0 16.0 93 0.7 NE 11 20 6 11 - - 0.0
19/01:00am 17.1 17.0 16.0 93 0.7 NE 11 17 6 9 - - 0.0
19/12:50am 17.0 16.5 16.0 94 0.6 NE 13 19 7 10 - - 0.0
19/12:40am 17.0 17.3 16.1 94 0.5 NE 9 13 5 7 - - 0.0
19/12:30am 17.0 17.0 16.2 95 0.5 NE 11 13 6 7 - - 0.0
19/12:20am 17.0 16.6 16.1 94 0.5 NE 13 19 7 10 - - 0.0
19/12:10am 16.9 17.2 16.0 94 0.5 NE 9 15 5 8 - - 0.0
19/12:00am 16.9 17.2 16.0 94 0.5 NE 9 13 5 7 - - 0.0
 
Date/Time
EST
Temp
°C
App
Temp
°C
Dew
Point
°C
Rel
Hum
%
Delta-T
°C
Wind Press
QNH
hPa
Press
MSL
hPa
Rain since
9am
mm
Dir  Spd
km/h
Gust
km/h
Spd
kts
Gust
kts
18/11:50pm 17.1 17.0 16.1 94 0.6 NE 11 17 6 9 - - 0.0
18/11:40pm 17.1 17.8 16.1 94 0.6 NE 7 9 4 5 - - 0.0
18/11:30pm 17.2 17.1 16.1 93 0.7 NE 11 17 6 9 - - 0.0
18/11:20pm 17.2 17.1 16.1 93 0.7 NNE 11 15 6 8 - - 0.0
18/11:10pm 17.2 17.9 16.1 93 0.7 NE 7 13 4 7 - - 0.0
18/11:00pm 17.2 17.5 16.1 93 0.7 NE 9 13 5 7 - - 0.0
18/10:50pm 17.2 17.6 16.2 94 0.6 NE 9 13 5 7 - - 0.0
18/10:40pm 17.2 17.2 16.2 94 0.6 NNE 11 17 6 9 - - 0.0
18/10:30pm 17.3 17.2 16.1 93 0.7 NNE 11 13 6 7 - - 0.0
18/10:20pm 17.4 17.0 16.1 92 0.8 NNE 13 17 7 9 - - 0.0
18/10:10pm 17.4 16.6 16.2 93 0.7 NNE 15 19 8 10 - - 0.0
18/10:00pm 17.5 17.1 16.1 91 0.9 NNE 13 17 7 9 - - 0.0
18/09:50pm 17.5 17.5 16.2 92 0.8 NE 11 15 6 8 - - 0.0
18/09:40pm 17.5 17.5 16.2 92 0.8 NE 11 17 6 9 - - 0.0
18/09:30pm 17.6 18.0 16.3 92 0.8 NE 9 13 5 7 - - 0.0
18/09:20pm 17.7 17.3 16.1 90 1.0 NE 13 13 7 7 - - 0.0
18/09:10pm 17.7 17.7 16.2 91 0.9 NE 11 17 6 9 - - 0.0
18/09:00pm 17.7 18.1 16.3 91 0.9 NE 9 13 5 7 - - 0.0
18/08:50pm 17.7 17.7 16.3 91 0.9 NE 11 15 6 8 - - 0.0
18/08:40pm 17.8 18.2 16.3 91 0.9 NE 9 15 5 8 - - 0.0
18/08:30pm 17.9 18.3 16.2 90 1.0 NE 9 15 5 8 - - 0.0
18/08:20pm 17.9 18.7 16.3 90 1.0 NE 7 13 4 7 - - 0.0
18/08:10pm 17.9 18.7 16.3 90 1.0 NE 7 11 4 6 - - 0.0
18/08:00pm 17.9 17.8 16.1 89 1.1 NE 11 15 6 8 - - 0.0
18/07:50pm 17.9 18.2 16.0 89 1.2 NE 9 13 5 7 - - 0.0
18/07:40pm 17.9 18.1 15.8 87 1.3 NE 9 13 5 7 - - 0.0
18/07:30pm 18.0 18.6 15.9 87 1.3 NE 7 13 4 7 - - 0.0
18/07:20pm 18.1 18.7 15.9 87 1.3 NE 7 11 4 6 - - 0.0
18/07:10pm 18.1 18.9 15.8 86 1.4 NE 6 11 3 6 - - 0.0
18/07:00pm 18.1 18.8 15.6 85 1.5 NE 6 7 3 4 - - 0.0
18/06:50pm 18.3 18.9 15.4 83 1.8 NE 6 9 3 5 - - 0.0
18/06:40pm 18.4 18.8 15.3 82 1.9 NE 7 11 4 6 - - 0.0
18/06:30pm 18.5 19.1 15.4 82 1.9 NE 6 9 3 5 - - 0.0
18/06:20pm 18.8 19.2 15.3 80 2.1 NE 7 11 4 6 - - 0.0
18/06:10pm 19.1 19.5 15.2 78 2.4 ENE 7 13 4 7 - - 0.0
18/06:00pm 19.5 19.9 15.3 76 2.5 ENE 7 11 4 6 - - 0.0
18/05:50pm 19.9 19.7 14.7 72 3.1 NE 9 15 5 8 - - 0.0
18/05:40pm 20.1 20.0 15.0 72 3.1 NE 9 13 5 7 - - 0.0
18/05:30pm 20.4 19.9 15.0 71 3.3 NE 11 15 6 8 - - 0.0
18/05:20pm 20.7 20.1 14.7 68 3.6 ENE 11 15 6 8 - - 0.0
18/05:10pm 20.9 20.3 14.6 67 3.8 ENE 11 17 6 9 - - 0.0
18/05:00pm 21.2 20.2 14.5 65 4.0 ENE 13 15 7 8 - - 0.0
18/04:50pm 21.5 20.9 14.6 65 4.2 ENE 11 15 6 8 - - 0.0
18/04:40pm 21.6 20.4 14.1 62 4.5 ENE 13 15 7 8 - - 0.0
18/04:30pm 22.0 21.0 14.7 63 4.4 ENE 13 17 7 9 - - 0.0
18/04:20pm 22.2 21.7 14.8 63 4.5 ENE 11 17 6 9 - - 0.0
18/04:10pm 22.6 21.7 13.6 56 5.4 ENE 11 15 6 8 - - 0.0
18/04:00pm 23.3 22.5 14.1 56 5.6 ENE 11 17 6 9 - - 0.0
18/03:50pm 23.3 22.1 14.0 56 5.6 NE 13 19 7 10 - - 0.0
18/03:40pm 23.4 22.3 14.2 56 5.6 NE 13 19 7 10 - - 0.0
18/03:30pm 23.7 22.9 14.1 55 5.8 ENE 11 19 6 10 - - 0.0
18/03:20pm 23.7 22.8 13.8 53 6.0 ENE 11 17 6 9 - - 0.0
18/03:10pm 24.3 23.7 13.5 51 6.5 ENE 9 19 5 10 - - 0.0
18/03:00pm 24.1 23.5 13.4 51 6.4 ENE 9 17 5 9 - - 0.0
18/02:50pm 24.0 22.7 13.8 53 6.1 ENE 13 20 7 11 - - 0.0
18/02:40pm 24.0 22.4 13.8 53 6.1 NE 15 22 8 12 - - 0.0
18/02:30pm 24.5 23.2 13.7 51 6.5 ENE 13 17 7 9 - - 0.0
18/02:20pm 24.2 23.0 13.9 52 6.2 ENE 13 17 7 9 - - 0.0
18/02:10pm 24.2 22.7 13.1 50 6.6 NE 13 19 7 10 - - 0.0
18/02:00pm 23.9 22.5 13.4 51 6.3 ENE 13 22 7 12 - - 0.0
18/01:50pm 24.3 22.6 13.5 51 6.5 ENE 15 19 8 10 - - 0.0
18/01:40pm 23.5 22.9 14.5 57 5.5 ENE 11 19 6 10 - - 0.0
18/01:30pm 23.7 22.8 14.8 57 5.4 E 13 20 7 11 - - 0.0
18/01:20pm 23.9 22.9 14.5 55 5.7 ENE 13 17 7 9 - - 0.0
18/01:10pm 23.7 22.6 15.2 59 5.2 ENE 15 19 8 10 - - 0.0
18/01:00pm 24.2 23.2 15.5 58 5.4 NE 15 22 8 12 - - 0.0
18/12:50pm 24.2 23.2 14.6 55 5.9 NE 13 20 7 11 - - 0.0
18/12:40pm 23.6 22.5 15.2 59 5.2 NE 15 20 8 11 - - 0.0
18/12:30pm 23.5 21.9 14.9 58 5.3 NE 17 22 9 12 - - 0.0
18/12:20pm 23.7 22.5 15.1 58 5.3 NE 15 22 8 12 - - 0.0
18/12:10pm 23.5 22.5 15.6 61 4.9 ENE 15 20 8 11 - - 0.0
18/12:00pm 23.2 22.4 16.2 64 4.4 NE 15 19 8 10 - - 0.0
18/11:50am 22.9 22.2 16.4 67 4.1 ENE 15 22 8 12 - - 0.0
18/11:40am 23.5 22.3 16.1 63 4.6 ENE 17 19 9 10 - - 0.0
18/11:30am 24.4 23.3 15.4 57 5.6 NE 15 19 8 10 - - 0.0
18/11:20am 24.3 23.2 15.4 57 5.5 NE 15 22 8 12 - - 0.0
18/11:10am 24.1 23.4 15.3 58 5.4 NE 13 19 7 10 - - 0.0
18/11:00am 24.2 23.2 15.7 59 5.3 NE 15 19 8 10 - - 0.0
18/10:50am 23.7 22.2 15.2 59 5.2 NE 17 20 9 11 - - 0.0
18/10:40am 24.2 24.0 15.8 59 5.2 NE 11 17 6 9 - - 0.0
18/10:30am 23.7 23.7 16.3 63 4.6 NE 11 17 6 9 - - 0.0
18/10:20am 23.5 23.6 16.6 65 4.3 NE 11 19 6 10 - - 0.0
18/10:10am 22.8 22.4 16.3 66 4.1 NE 13 17 7 9 - - 0.0
18/10:00am 22.2 21.5 16.5 70 3.6 NE 15 17 8 9 - - 0.0
18/09:50am 22.0 21.3 16.3 70 3.5 NE 15 17 8 9 - - 0.0
18/09:40am 22.2 21.5 16.5 70 3.6 NE 15 20 8 11 - - 0.0
18/09:30am 21.4 21.2 16.6 74 3.0 NE 13 17 7 9 - - 0.0
18/09:20am 20.9 20.7 16.7 77 2.6 NE 13 19 7 10 - - 0.0
18/09:10am 21.1 20.9 16.6 75 2.8 NE 13 17 7 9 - - 0.0
18/09:00am 20.7 20.0 16.5 77 2.6 NE 15 20 8 11 - - 0.0
18/08:50am 20.3 19.5 16.2 77 2.5 NE 15 19 8 10 - - 0.0
18/08:40am 19.7 19.4 16.4 81 2.0 NE 13 19 7 10 - - 0.0
18/08:30am 19.3 19.4 16.6 84 1.7 NE 11 15 6 8 - - 0.0
18/08:20am 18.7 19.0 16.9 89 1.1 NNE 11 15 6 8 - - 0.0
18/08:10am 18.4 18.3 17.0 91 0.9 NE 13 15 7 8 - - 0.0
18/08:00am 18.5 18.6 16.6 89 1.2 NE 11 13 6 7 - - 0.0
18/07:50am 18.4 19.3 16.6 89 1.1 NE 7 15 4 8 - - 0.0
18/07:40am 18.7 19.0 16.9 89 1.1 NE 11 15 6 8 - - 0.0
18/07:30am 18.6 18.8 16.7 89 1.2 NE 11 17 6 9 - - 0.0
18/07:20am 18.8 19.8 16.9 89 1.2 NE 7 13 4 7 - - 0.0
18/07:10am 18.5 19.0 16.5 88 1.2 NE 9 15 5 8 - - 0.0
18/07:00am 17.9 18.1 16.8 93 0.7 NE 11 15 6 8 - - 0.0
18/06:50am 17.8 18.0 16.8 94 0.6 NE 11 15 6 8 - - 0.0
18/06:40am 17.8 18.0 16.7 93 0.7 NE 11 17 6 9 - - 0.0
18/06:30am 17.7 17.8 16.6 93 0.7 NE 11 15 6 8 - - 0.0
18/06:20am 17.6 18.1 16.5 93 0.7 NE 9 15 5 8 - - 0.0
18/06:10am 17.6 17.9 16.0 90 1.0 NE 9 15 5 8 - - 0.0
18/06:00am 17.6 17.7 16.6 94 0.6 NE 11 17 6 9 - - 0.0
18/05:50am 17.5 17.9 16.4 93 0.7 NE 9 11 5 6 - - 0.0
18/05:40am 17.5 18.3 16.3 93 0.7 NE 7 13 4 7 - - 0.0
18/05:30am 17.5 17.9 16.4 93 0.7 NE 9 13 5 7 - - 0.0
18/05:20am 17.5 17.6 16.4 93 0.7 NE 11 13 6 7 - - 0.0
18/05:10am 17.5 17.9 16.3 93 0.7 NE 9 17 5 9 - - 0.0
18/05:00am 17.4 17.4 16.3 93 0.7 NE 11 17 6 9 - - 0.0
18/04:50am 17.4 17.5 16.4 94 0.6 NE 11 17 6 9 - - 0.0
18/04:40am 17.4 17.8 16.4 94 0.6 NE 9 15 5 8 - - 0.0
18/04:30am 17.4 17.0 16.3 93 0.7 NE 13 17 7 9 - - 0.0
18/04:20am 17.4 17.4 16.2 93 0.7 NE 11 20 6 11 - - 0.0
18/04:10am 17.4 17.0 16.2 93 0.7 NE 13 15 7 8 - - 0.0
18/04:00am 17.4 17.0 16.1 92 0.8 NE 13 15 7 8 - - 0.0
18/03:50am 17.4 17.7 16.1 92 0.8 NE 9 13 5 7 - - 0.0
18/03:40am 17.5 17.1 16.2 92 0.8 NE 13 17 7 9 - - 0.0
18/03:30am 17.5 17.1 16.2 92 0.8 NE 13 17 7 9 - - 0.0
18/03:20am 17.5 17.5 16.2 92 0.8 NE 11 15 6 8 - - 0.0
18/03:10am 17.5 17.1 16.2 92 0.8 NE 13 17 7 9 - - 0.0
18/03:00am 17.4 17.0 16.2 93 0.7 NE 13 15 7 8 - - 0.0
18/02:50am 17.5 17.1 16.2 92 0.8 NE 13 17 7 9 - - 0.0

Other Formats:

Comma delimited format used in spreadsheet applications
http://www.bom.gov.au/fwo/IDQ60801/IDQ60801.99125.axf

JavaScript Object Notation format (JSON) in row-major order
http://www.bom.gov.au/fwo/IDQ60801/IDQ60801.99125.json